Time;durP1;ratioP1;P1;durP2;ratioP2;P2;SDS_P1;SDS_P2;PMS_P1;PMS_P2;Temp;Humidity;BMP_temperature;BMP_pressure;BME280_temperature;BME280_humidity;BME280_pressure;Samples;Min_cycle;Max_cycle;Signal;HPM_P1;HPM_P2
2022/01/04 00:01:10;;;;;;;7.32;3.50;;;8.70;99.90;;;;;;5063221;28;20195;-52
2022/01/04 00:03:37;;;;;;;3.85;2.95;;;8.60;99.90;;;;;;5062263;28;20534;-49
2022/01/04 00:06:05;;;;;;;3.90;2.67;;;8.60;99.90;;;;;;5062281;28;20437;-48
2022/01/04 00:08:32;;;;;;;2.97;2.70;;;8.60;99.90;;;;;;5059983;28;20502;-51
2022/01/04 00:11:15;;;;;;;3.58;2.80;;;8.40;99.90;;;;;;5060769;28;20502;-49
2022/01/04 00:13:43;;;;;;;3.50;2.00;;;8.40;99.90;;;;;;5061123;28;20228;-49
2022/01/04 00:16:11;;;;;;;3.42;2.75;;;8.50;99.90;;;;;;5064426;28;20245;-46
2022/01/04 00:18:39;;;;;;;3.45;2.90;;;8.50;99.90;;;;;;5064948;28;20222;-54
2022/01/04 00:21:07;;;;;;;3.67;2.72;;;8.60;99.90;;;;;;5070564;28;20327;-53
2022/01/04 00:23:34;;;;;;;3.50;3.20;;;8.60;99.90;;;;;;5059439;28;20219;-50
2022/01/04 00:26:02;;;;;;;3.88;2.55;;;8.60;99.90;;;;;;5062127;28;20245;-50
2022/01/04 00:28:29;;;;;;;3.22;2.35;;;8.80;99.90;;;;;;5061946;28;20548;-49
2022/01/04 00:30:56;;;;;;;3.92;2.00;;;8.90;99.90;;;;;;5061778;28;20207;-53
2022/01/04 00:33:24;;;;;;;3.28;1.70;;;8.80;99.90;;;;;;5061646;28;20266;-54
2022/01/04 00:35:51;;;;;;;2.33;2.13;;;8.70;99.90;;;;;;5061649;28;20250;-50
2022/01/04 00:38:18;;;;;;;4.55;1.50;;;8.50;99.90;;;;;;5061722;28;20211;-51
2022/01/04 00:40:46;;;;;;;1.55;1.45;;;8.60;99.90;;;;;;5061588;28;20227;-51
2022/01/04 00:43:13;;;;;;;1.88;1.63;;;8.70;99.90;;;;;;5059329;28;20381;-48
2022/01/04 00:45:41;;;;;;;4.18;2.03;;;8.90;99.90;;;;;;5062151;28;20275;-50
2022/01/04 00:50:37;;;;;;;2.70;1.45;;;8.80;99.90;;;;;;5061952;28;20261;-53
2022/01/04 00:53:05;;;;;;;1.60;1.50;;;8.90;99.90;;;;;;5061218;28;20231;-49
2022/01/04 00:55:33;;;;;;;2.17;1.98;;;8.70;99.90;;;;;;5061638;28;20230;-54
2022/01/04 00:58:03;;;;;;;2.80;2.03;;;8.70;99.90;;;;;;5060564;28;20208;-50
2022/01/04 01:00:34;;;;;;;1.80;1.70;;;8.50;99.90;;;;;;5060206;28;20258;-51
2022/01/04 01:03:01;;;;;;;2.15;1.73;;;8.50;99.90;;;;;;5059744;28;20265;-54
2022/01/04 01:05:30;;;;;;;1.40;1.30;;;8.70;99.90;;;;;;5060968;28;20200;-51
2022/01/04 01:07:57;;;;;;;3.05;2.17;;;8.80;99.90;;;;;;5058405;28;20219;-50
2022/01/04 01:12:58;;;;;;;1.95;1.70;;;8.60;99.90;;;;;;5060990;28;20222;-51
2022/01/04 01:15:26;;;;;;;2.70;1.63;;;8.70;99.90;;;;;;5060767;28;20199;-53
2022/01/04 01:17:53;;;;;;;1.73;1.63;;;8.50;99.90;;;;;;5060827;28;20371;-52
2022/01/04 01:20:21;;;;;;;2.30;1.45;;;8.30;99.90;;;;;;5060529;28;20460;-49
2022/01/04 01:22:49;;;;;;;1.20;1.10;;;8.20;99.90;;;;;;5060988;28;20231;-52
2022/01/04 01:25:17;;;;;;;1.30;1.10;;;8.20;99.90;;;;;;5061306;28;20208;-53
2022/01/04 01:27:44;;;;;;;1.33;1.23;;;8.10;99.90;;;;;;5068553;28;20276;-48
2022/01/04 01:30:12;;;;;;;1.58;1.10;;;7.80;99.90;;;;;;5063697;28;20230;-49
2022/01/04 01:32:39;;;;;;;1.88;1.40;;;7.80;99.90;;;;;;5060656;28;20273;-48
2022/01/04 01:35:07;;;;;;;1.95;1.63;;;8.00;99.90;;;;;;5059339;28;20506;-50
2022/01/04 01:37:34;;;;;;;1.40;1.30;;;8.00;99.90;;;;;;5060262;28;20199;-51
2022/01/04 01:40:04;;;;;;;2.55;1.30;;;8.00;99.90;;;;;;5060711;28;20227;-47
2022/01/04 01:42:31;;;;;;;2.15;1.20;;;7.90;99.90;;;;;;5060376;28;20215;-51
2022/01/04 01:44:58;;;;;;;1.60;1.17;;;8.00;99.90;;;;;;5060624;28;20253;-55
2022/01/04 01:47:26;;;;;;;1.00;0.90;;;8.00;99.90;;;;;;5060070;28;20250;-51
2022/01/04 01:49:53;;;;;;;0.90;0.90;;;8.10;99.90;;;;;;5060195;28;20203;-50
2022/01/04 01:52:21;;;;;;;1.13;0.80;;;8.00;99.90;;;;;;5060241;28;20227;-50
2022/01/04 01:54:49;;;;;;;1.50;1.08;;;7.80;99.90;;;;;;5060223;28;20219;-54
2022/01/04 01:57:16;;;;;;;1.10;1.00;;;7.80;99.90;;;;;;5060261;28;20203;-52
2022/01/04 01:59:43;;;;;;;2.08;1.40;;;7.70;99.90;;;;;;5059913;28;20223;-49
2022/01/04 02:02:10;;;;;;;1.30;1.20;;;7.60;99.90;;;;;;5059571;28;20215;-53
2022/01/04 02:04:38;;;;;;;1.50;1.05;;;7.50;99.90;;;;;;5059825;28;20202;-53
2022/01/04 02:07:07;;;;;;;1.10;0.95;;;7.40;99.90;;;;;;5057056;28;20246;-49
2022/01/04 02:09:37;;;;;;;1.10;1.00;;;7.50;99.90;;;;;;5059511;28;20619;-53
2022/01/04 02:12:06;;;;;;;1.25;0.77;;;7.70;99.90;;;;;;5059857;28;20272;-51
2022/01/04 02:14:34;;;;;;;1.10;1.00;;;7.90;99.90;;;;;;5060189;28;20199;-50
2022/01/04 02:17:01;;;;;;;1.23;1.10;;;7.80;99.90;;;;;;5059877;28;20246;-52
2022/01/04 02:19:28;;;;;;;1.45;1.10;;;7.80;99.90;;;;;;5059939;28;20751;-49
2022/01/04 02:21:56;;;;;;;1.58;1.30;;;8.00;99.90;;;;;;5059850;28;20226;-48
2022/01/04 02:24:23;;;;;;;5.00;1.23;;;8.10;99.90;;;;;;5060721;28;20197;-52
2022/01/04 02:26:51;;;;;;;1.00;0.90;;;8.00;99.90;;;;;;5060369;28;20258;-49
2022/01/04 02:29:18;;;;;;;0.95;0.85;;;7.90;99.90;;;;;;5061113;28;20192;-49
2022/01/04 02:31:46;;;;;;;1.20;1.15;;;8.00;99.90;;;;;;5061045;28;20195;-50
2022/01/04 02:34:13;;;;;;;1.42;1.00;;;7.90;99.90;;;;;;5057648;28;20542;-49
2022/01/04 02:36:41;;;;;;;1.45;0.95;;;7.90;99.90;;;;;;5059774;28;20215;-51
2022/01/04 02:39:08;;;;;;;2.28;1.20;;;7.80;99.90;;;;;;5058570;28;20254;-53
2022/01/04 02:41:35;;;;;;;1.73;1.17;;;7.90;99.90;;;;;;5059694;28;20826;-52
2022/01/04 02:44:04;;;;;;;1.25;1.15;;;7.90;99.90;;;;;;5059516;28;20234;-54
2022/01/04 02:46:31;;;;;;;2.50;1.50;;;7.90;99.90;;;;;;5059598;28;20241;-49
2022/01/04 02:48:58;;;;;;;1.42;0.90;;;7.80;99.90;;;;;;5059202;28;20486;-51
2022/01/04 02:51:26;;;;;;;1.73;1.17;;;7.70;99.90;;;;;;5059259;28;20198;-51
2022/01/04 02:53:53;;;;;;;1.35;0.80;;;7.90;99.90;;;;;;5059045;28;20219;-55
2022/01/04 02:56:20;;;;;;;1.70;1.00;;;7.90;99.90;;;;;;5058117;28;20210;-52
2022/01/04 02:58:47;;;;;;;1.13;0.88;;;7.90;99.90;;;;;;5059504;28;20208;-53
2022/01/04 03:01:15;;;;;;;2.40;1.30;;;7.90;99.90;;;;;;5054223;28;20470;-49
2022/01/04 03:03:42;;;;;;;1.10;0.80;;;7.80;99.90;;;;;;5060101;28;20261;-50
2022/01/04 03:06:13;;;;;;;3.50;1.30;;;7.70;99.90;;;;;;5059570;28;20203;-50
2022/01/04 03:08:40;;;;;;;0.95;0.60;;;7.80;99.90;;;;;;5060957;28;20219;-50
2022/01/04 03:11:08;;;;;;;0.82;0.82;;;7.70;99.90;;;;;;5059326;28;20253;-56
2022/01/04 03:13:35;;;;;;;0.65;0.63;;;7.60;99.90;;;;;;5061002;28;20542;-49
2022/01/04 03:16:03;;;;;;;1.58;1.05;;;7.70;99.90;;;;;;5059216;28;20238;-52
2022/01/04 03:18:30;;;;;;;0.70;0.70;;;7.70;99.90;;;;;;5059835;28;20442;-50
2022/01/04 03:20:58;;;;;;;0.80;0.80;;;7.80;99.90;;;;;;5061494;28;20223;-49
2022/01/04 03:23:25;;;;;;;2.35;0.93;;;7.80;99.90;;;;;;5062917;28;20223;-51
2022/01/04 03:25:52;;;;;;;0.70;0.70;;;7.70;99.90;;;;;;5063401;28;20211;-50
2022/01/04 03:28:22;;;;;;;1.25;0.82;;;7.80;99.90;;;;;;5062959;28;20207;-50
2022/01/04 03:30:49;;;;;;;0.90;0.90;;;7.70;99.90;;;;;;5063567;28;20220;-51
2022/01/04 03:33:17;;;;;;;0.60;0.60;;;7.70;99.90;;;;;;5059533;28;20257;-50
2022/01/04 03:35:44;;;;;;;0.63;0.55;;;7.60;99.90;;;;;;5059398;28;20200;-51
2022/01/04 03:38:11;;;;;;;0.55;0.55;;;7.50;99.90;;;;;;5060201;28;20203;-54
2022/01/04 03:40:38;;;;;;;1.10;0.63;;;7.60;99.90;;;;;;5063594;28;20269;-50
2022/01/04 03:43:05;;;;;;;0.70;0.70;;;7.50;99.90;;;;;;5063281;28;20455;-49
2022/01/04 03:45:32;;;;;;;1.17;0.95;;;7.60;99.90;;;;;;5060552;28;20541;-48
2022/01/04 03:48:00;;;;;;;1.45;1.30;;;7.50;99.90;;;;;;5058658;28;20195;-48
2022/01/04 03:50:27;;;;;;;1.20;1.20;;;7.50;99.90;;;;;;5063030;28;20498;-50
2022/01/04 03:52:54;;;;;;;3.28;1.70;;;7.30;99.90;;;;;;5057611;28;20227;-50
2022/01/04 03:55:21;;;;;;;0.60;0.60;;;7.30;99.90;;;;;;5062459;28;20238;-53
2022/01/04 03:57:49;;;;;;;1.17;0.70;;;7.30;99.90;;;;;;5062338;28;20380;-50
2022/01/04 04:00:16;;;;;;;0.73;0.65;;;7.30;99.90;;;;;;5059733;28;20211;-49
2022/01/04 04:02:44;;;;;;;0.57;0.57;;;7.20;99.90;;;;;;5062456;28;20261;-52
2022/01/04 04:05:12;;;;;;;0.80;0.80;;;7.10;99.90;;;;;;5062066;28;20245;-52
2022/01/04 04:07:40;;;;;;;0.80;0.80;;;7.20;99.90;;;;;;5062322;28;20233;-50
2022/01/04 04:10:08;;;;;;;1.48;1.00;;;7.20;99.90;;;;;;5059903;28;20207;-49
2022/01/04 04:12:35;;;;;;;0.82;0.73;;;7.30;99.90;;;;;;5062423;28;20317;-51
2022/01/04 04:15:07;;;;;;;0.85;0.82;;;7.20;99.90;;;;;;5062251;28;20203;-50
2022/01/04 04:17:36;;;;;;;1.65;0.82;;;7.20;99.90;;;;;;5058982;28;20207;-50
2022/01/04 04:20:04;;;;;;;0.80;0.80;;;7.10;99.90;;;;;;5057517;28;20236;-51
2022/01/04 04:22:32;;;;;;;1.60;0.95;;;7.10;99.90;;;;;;5059105;28;20253;-50
2022/01/04 04:24:59;;;;;;;0.90;0.90;;;7.20;99.90;;;;;;5062189;28;20203;-50
2022/01/04 04:27:27;;;;;;;1.05;0.85;;;7.30;99.90;;;;;;5058564;28;20245;-48
2022/01/04 04:29:54;;;;;;;1.27;1.17;;;7.40;99.90;;;;;;5059882;28;20234;-49
2022/01/04 04:32:22;;;;;;;1.35;0.90;;;7.50;99.90;;;;;;5058339;28;20223;-50
2022/01/04 04:34:49;;;;;;;5.32;0.95;;;7.40;99.90;;;;;;5061986;28;20245;-54
2022/01/04 04:37:16;;;;;;;0.90;0.90;;;7.50;99.90;;;;;;5056637;28;20195;-51
2022/01/04 04:39:43;;;;;;;1.50;1.00;;;7.60;99.90;;;;;;5061915;28;20556;-49
2022/01/04 04:42:10;;;;;;;0.98;0.88;;;7.60;99.90;;;;;;5061861;28;20602;-51
2022/01/04 04:44:37;;;;;;;1.08;0.98;;;7.50;99.90;;;;;;5061392;28;20195;-52
2022/01/04 04:47:05;;;;;;;0.85;0.85;;;7.50;99.90;;;;;;5061756;28;20204;-51
2022/01/04 04:49:32;;;;;;;1.58;1.00;;;7.60;99.90;;;;;;5067204;28;20196;-52
2022/01/04 04:52:00;;;;;;;1.40;1.30;;;7.70;99.90;;;;;;5065455;28;20227;-52
2022/01/04 04:54:28;;;;;;;1.73;1.20;;;7.60;99.90;;;;;;5060967;28;20207;-51
2022/01/04 04:56:55;;;;;;;1.40;0.93;;;7.60;99.90;;;;;;5061121;28;20306;-49
2022/01/04 04:59:22;;;;;;;1.35;1.25;;;7.60;99.90;;;;;;5060783;28;20200;-49
2022/01/04 05:01:50;;;;;;;2.05;1.30;;;7.60;99.90;;;;;;5061100;28;20546;-50
2022/01/04 05:04:18;;;;;;;1.67;1.00;;;7.50;99.90;;;;;;5058819;28;20195;-48
2022/01/04 05:06:46;;;;;;;1.70;1.48;;;7.60;99.90;;;;;;5061473;28;20200;-49
2022/01/04 05:09:13;;;;;;;1.33;1.20;;;7.70;99.90;;;;;;5061282;28;20249;-49
2022/01/04 05:11:41;;;;;;;1.90;1.40;;;7.70;99.90;;;;;;5061564;28;20237;-51
2022/01/04 05:14:09;;;;;;;1.70;1.60;;;7.90;99.90;;;;;;5062237;28;20203;-53
2022/01/04 05:16:36;;;;;;;1.70;1.27;;;7.90;99.90;;;;;;5061540;28;20238;-51
2022/01/04 05:19:03;;;;;;;1.27;1.17;;;7.90;99.90;;;;;;5061808;28;20199;-50
2022/01/04 05:21:30;;;;;;;1.95;1.60;;;7.90;99.90;;;;;;5061350;28;20288;-49
2022/01/04 05:23:58;;;;;;;1.90;1.75;;;7.80;99.90;;;;;;5061909;28;20200;-50
2022/01/04 05:26:25;;;;;;;2.33;1.55;;;7.70;99.90;;;;;;5061541;28;20468;-51
2022/01/04 05:28:52;;;;;;;3.10;1.73;;;7.70;99.90;;;;;;5061479;28;20241;-49
2022/01/04 05:31:19;;;;;;;2.05;1.92;;;7.80;99.90;;;;;;5057649;28;20215;-51
2022/01/04 05:33:47;;;;;;;2.95;2.00;;;7.80;99.90;;;;;;5061666;28;20234;-49
2022/01/04 05:36:14;;;;;;;1.95;1.85;;;7.70;99.90;;;;;;5061643;28;20203;-50
2022/01/04 05:38:43;;;;;;;2.10;1.65;;;7.90;99.90;;;;;;5056039;28;20195;-52
2022/01/04 05:41:10;;;;;;;2.65;1.90;;;7.70;99.90;;;;;;5061139;28;20227;-51
2022/01/04 05:43:37;;;;;;;4.03;2.38;;;7.70;99.90;;;;;;5060226;28;20223;-50
2022/01/04 05:46:04;;;;;;;3.55;2.65;;;7.80;99.90;;;;;;5060914;28;20541;-50
2022/01/04 05:48:32;;;;;;;2.85;2.63;;;8.00;99.90;;;;;;5061782;28;20191;-53
2022/01/04 05:50:59;;;;;;;3.00;2.40;;;8.00;99.90;;;;;;5062282;28;20246;-50
2022/01/04 05:53:31;;;;;;;3.92;2.17;;;8.00;99.90;;;;;;5060241;28;20316;-53
2022/01/04 05:55:58;;;;;;;9.27;2.33;;;8.10;99.90;;;;;;5040311;28;20226;-54
2022/01/04 05:58:25;;;;;;;2.20;2.10;;;8.20;99.90;;;;;;5044289;28;20265;-51
2022/01/04 06:00:53;;;;;;;2.83;2.58;;;8.10;99.90;;;;;;5044643;28;20222;-49
2022/01/04 06:03:20;;;;;;;2.58;2.38;;;7.90;99.90;;;;;;5060969;28;20219;-48
2022/01/04 06:05:48;;;;;;;3.88;3.15;;;8.00;99.90;;;;;;5060315;28;20196;-50
2022/01/04 06:08:15;;;;;;;3.78;3.28;;;8.10;99.90;;;;;;5065792;28;20241;-54
2022/01/04 06:10:44;;;;;;;5.43;2.95;;;8.00;99.90;;;;;;5068553;28;20199;-55
2022/01/04 06:15:58;;;;;;;4.57;3.60;;;8.10;99.90;;;;;;5021701;28;20238;-49
2022/01/04 06:18:25;;;;;;;5.00;4.53;;;8.00;99.90;;;;;;5062219;28;20199;-52
2022/01/04 06:20:55;;;;;;;5.10;4.40;;;8.00;99.90;;;;;;5053827;28;20223;-54
2022/01/04 06:23:22;;;;;;;5.18;4.72;;;8.10;99.90;;;;;;5061443;28;20220;-53
2022/01/04 06:25:52;;;;;;;3.92;3.53;;;8.20;99.90;;;;;;5061606;28;20196;-49
2022/01/04 06:28:20;;;;;;;4.00;3.25;;;8.20;99.90;;;;;;5061098;28;20200;-53
2022/01/04 06:30:50;;;;;;;8.52;3.90;;;8.20;99.90;;;;;;5070349;28;20199;-48
2022/01/04 06:33:19;;;;;;;7.07;4.07;;;8.40;99.90;;;;;;5062359;28;20223;-50
2022/01/04 06:35:48;;;;;;;7.20;5.38;;;8.40;99.90;;;;;;5060771;28;20230;-51
2022/01/04 06:38:16;;;;;;;5.95;3.92;;;8.40;99.90;;;;;;5055963;28;20237;-51
2022/01/04 06:40:43;;;;;;;4.53;3.97;;;8.30;99.90;;;;;;5052152;28;20468;-49
2022/01/04 06:43:10;;;;;;;4.38;3.70;;;8.20;99.90;;;;;;5059846;28;20261;-50
2022/01/04 06:45:37;;;;;;;4.35;3.90;;;8.20;99.90;;;;;;5059952;28;20436;-48
2022/01/04 06:48:05;;;;;;;4.10;3.80;;;8.30;99.90;;;;;;5059423;28;20513;-49
2022/01/04 06:50:32;;;;;;;5.20;4.70;;;8.20;99.90;;;;;;5060093;28;20203;-48
2022/01/04 06:52:59;;;;;;;3.25;3.00;;;8.10;99.90;;;;;;5059596;28;20317;-53
2022/01/04 06:55:26;;;;;;;4.57;4.18;;;8.20;99.90;;;;;;5063295;28;20241;-52
2022/01/04 06:57:53;;;;;;;4.47;3.17;;;8.40;99.90;;;;;;5059481;28;20211;-50
2022/01/04 07:00:21;;;;;;;3.40;3.10;;;8.50;99.90;;;;;;5065061;28;20274;-48
2022/01/04 07:02:48;;;;;;;4.75;3.75;;;8.20;99.90;;;;;;5061993;28;20441;-48
2022/01/04 07:05:15;;;;;;;4.38;2.78;;;8.40;99.90;;;;;;5063245;28;20743;-50
2022/01/04 07:07:42;;;;;;;3.97;3.50;;;8.30;99.90;;;;;;5063176;28;20196;-49
2022/01/04 07:10:11;;;;;;;3.28;2.83;;;8.30;99.90;;;;;;5062978;28;20266;-51
2022/01/04 07:12:38;;;;;;;8.38;4.80;;;8.40;99.90;;;;;;5063599;28;20269;-53
2022/01/04 07:15:06;;;;;;;4.50;4.10;;;8.50;99.90;;;;;;5063484;28;20510;-49
2022/01/04 07:17:37;;;;;;;7.18;5.15;;;8.40;99.90;;;;;;5063364;28;20211;-48
2022/01/04 07:20:05;;;;;;;6.93;5.63;;;8.30;99.90;;;;;;5063680;28;20203;-49
2022/01/04 07:22:32;;;;;;;6.65;5.10;;;8.40;99.90;;;;;;5063503;28;20228;-48
2022/01/04 07:24:59;;;;;;;9.13;5.55;;;8.40;99.90;;;;;;5063833;28;20188;-52
2022/01/04 07:27:26;;;;;;;7.40;6.18;;;8.30;99.90;;;;;;5056068;28;20200;-50
2022/01/04 07:29:54;;;;;;;9.05;5.93;;;8.50;99.90;;;;;;5057033;28;20266;-48
2022/01/04 07:32:21;;;;;;;8.13;6.10;;;8.50;99.90;;;;;;5056248;28;20227;-47
2022/01/04 07:34:48;;;;;;;6.57;5.32;;;8.50;99.90;;;;;;5056051;28;20347;-49
2022/01/04 07:37:16;;;;;;;13.60;6.95;;;8.50;99.90;;;;;;5055543;28;20215;-52
2022/01/04 07:39:43;;;;;;;7.65;6.65;;;8.70;99.90;;;;;;5059262;28;20277;-50
2022/01/04 07:42:10;;;;;;;8.25;6.93;;;8.70;99.90;;;;;;5062653;28;20281;-50
2022/01/04 07:44:37;;;;;;;7.45;6.75;;;8.70;99.90;;;;;;5062816;28;20195;-49
2022/01/04 07:47:05;;;;;;;11.73;7.10;;;8.50;99.90;;;;;;5063298;28;20196;-50
2022/01/04 07:49:32;;;;;;;7.70;6.30;;;8.50;99.90;;;;;;5063584;28;20387;-48
2022/01/04 07:51:59;;;;;;;8.02;6.95;;;8.60;99.90;;;;;;5064395;28;20227;-58
2022/01/04 07:54:26;;;;;;;7.38;6.50;;;8.50;99.90;;;;;;5064569;28;20535;-48
2022/01/04 07:56:55;;;;;;;7.80;5.95;;;8.40;99.90;;;;;;5061458;28;20233;-49
2022/01/04 07:59:22;;;;;;;7.40;5.82;;;8.50;99.90;;;;;;5056540;28;20270;-49
2022/01/04 08:01:50;;;;;;;7.45;5.35;;;8.50;99.90;;;;;;5069096;28;20278;-52
2022/01/04 08:04:17;;;;;;;5.68;4.35;;;8.50;99.90;;;;;;5059001;28;20200;-49
2022/01/04 08:06:44;;;;;;;5.18;4.78;;;8.50;99.90;;;;;;5061960;28;20203;-50
2022/01/04 08:09:11;;;;;;;7.85;4.45;;;8.60;99.90;;;;;;5068557;28;20207;-50
2022/01/04 08:11:39;;;;;;;10.40;5.07;;;8.60;99.90;;;;;;5063119;28;20217;-49
2022/01/04 08:14:06;;;;;;;8.05;5.00;;;8.80;99.90;;;;;;5061230;28;20483;-52
2022/01/04 08:16:33;;;;;;;8.60;5.57;;;8.70;99.90;;;;;;5062617;28;20203;-50
2022/01/04 08:19:00;;;;;;;9.55;5.45;;;8.70;99.90;;;;;;5062299;28;20266;-53
2022/01/04 08:21:33;;;;;;;6.78;5.20;;;8.70;99.90;;;;;;5062689;28;20219;-53
2022/01/04 08:24:00;;;;;;;5.60;5.00;;;8.60;99.90;;;;;;5057554;28;20238;-48
2022/01/04 08:26:28;;;;;;;7.03;5.70;;;8.40;99.90;;;;;;5061977;28;20245;-53
2022/01/04 08:28:56;;;;;;;9.02;6.43;;;8.50;99.90;;;;;;5062405;28;20537;-49
2022/01/04 08:31:23;;;;;;;6.57;5.50;;;8.50;99.90;;;;;;5061835;28;20210;-49
2022/01/04 08:33:52;;;;;;;7.70;4.40;;;8.50;99.90;;;;;;5062449;28;20326;-49
2022/01/04 08:36:21;;;;;;;5.78;5.22;;;8.70;99.90;;;;;;5061736;28;20199;-50
2022/01/04 08:38:48;;;;;;;8.90;6.57;;;8.70;99.90;;;;;;5062122;28;20253;-51
2022/01/04 08:41:15;;;;;;;12.48;7.18;;;8.60;99.90;;;;;;5061750;28;20219;-49
2022/01/04 08:43:42;;;;;;;10.60;6.28;;;8.60;99.90;;;;;;5061739;28;20247;-48
2022/01/04 08:46:09;;;;;;;13.15;6.63;;;8.60;99.90;;;;;;5062183;28;20241;-50
2022/01/04 08:48:36;;;;;;;6.65;5.22;;;8.70;99.90;;;;;;5061900;28;20263;-49
2022/01/04 08:51:04;;;;;;;15.02;7.22;;;8.70;99.90;;;;;;5061989;28;20245;-49
2022/01/04 08:53:31;;;;;;;10.40;5.85;;;8.80;99.90;;;;;;5061737;28;20228;-51
2022/01/04 08:56:01;;;;;;;11.35;6.10;;;8.80;99.90;;;;;;5062149;28;20199;-49
2022/01/04 08:58:29;;;;;;;10.45;5.28;;;9.00;99.90;;;;;;5062191;28;20195;-48
2022/01/04 09:00:56;;;;;;;10.73;5.25;;;9.10;99.90;;;;;;5062506;28;20196;-53
2022/01/04 09:03:26;;;;;;;10.13;5.10;;;9.10;99.90;;;;;;5062740;28;20608;-52
2022/01/04 09:05:54;;;;;;;6.45;5.53;;;9.20;99.90;;;;;;5061133;28;20195;-51
2022/01/04 09:08:21;;;;;;;5.80;5.00;;;9.40;99.90;;;;;;5061938;28;20200;-50
2022/01/04 09:10:48;;;;;;;6.65;4.65;;;9.60;99.90;;;;;;5061884;28;20368;-51
2022/01/04 09:13:19;;;;;;;6.65;4.80;;;9.80;99.90;;;;;;5051249;28;20535;-54
2022/01/04 09:18:42;;;;;;;11.45;7.50;;;9.80;99.90;;;;;;5044518;28;20217;-49
2022/01/04 09:18:43;;;;;;;14.80;8.48;;;9.70;99.90;;;;;;5042909;28;20275;-49
2022/01/04 09:21:26;;;;;;;10.45;5.60;;;9.90;99.90;;;;;;5043628;28;20323;-51
2022/01/04 09:23:55;;;;;;;10.80;7.05;;;9.50;99.90;;;;;;5044500;28;20417;-52
2022/01/04 09:26:24;;;;;;;14.15;6.95;;;9.40;99.90;;;;;;5043926;28;20205;-50
2022/01/04 09:28:52;;;;;;;11.40;6.60;;;9.40;99.90;;;;;;5043890;28;20234;-49
2022/01/04 09:31:24;;;;;;;14.50;7.30;;;9.40;99.90;;;;;;5047559;28;20201;-48
2022/01/04 09:33:54;;;;;;;10.85;6.70;;;9.40;99.90;;;;;;5051781;28;20223;-51
2022/01/04 09:36:28;;;;;;;7.85;5.40;;;9.50;99.90;;;;;;5061919;28;20238;-51
2022/01/04 09:38:55;;;;;;;11.15;8.30;;;9.70;99.90;;;;;;5062168;28;20200;-50
2022/01/04 09:41:23;;;;;;;11.23;6.70;;;9.60;99.90;;;;;;5060927;28;20229;-50
2022/01/04 09:43:51;;;;;;;9.20;7.38;;;9.60;99.90;;;;;;5060383;28;20216;-47
2022/01/04 09:46:19;;;;;;;9.40;8.30;;;9.50;99.90;;;;;;5061143;28;20202;-47
2022/01/04 09:48:46;;;;;;;11.07;7.90;;;9.30;99.90;;;;;;5064778;28;20268;-48
2022/01/04 09:51:15;;;;;;;12.95;8.23;;;9.40;99.90;;;;;;5068687;28;20251;-50
2022/01/04 09:53:43;;;;;;;9.18;6.20;;;9.40;99.90;;;;;;5054880;28;20655;-49
2022/01/04 09:56:13;;;;;;;11.55;7.55;;;9.40;99.90;;;;;;5056604;28;20449;-49
2022/01/04 09:58:40;;;;;;;15.13;9.45;;;9.40;99.90;;;;;;5053164;28;20197;-53
2022/01/04 10:01:24;;;;;;;14.10;7.90;;;9.50;99.90;;;;;;5058614;28;20200;-49
2022/01/04 10:04:12;;;;;;;19.58;8.25;;;9.70;99.90;;;;;;5061394;28;20403;-48
2022/01/04 10:06:59;;;;;;;9.13;7.35;;;9.70;99.90;;;;;;5059555;28;20243;-49
2022/01/04 10:09:45;;;;;;;10.73;7.82;;;9.80;99.90;;;;;;5040562;28;20197;-54
2022/01/04 10:12:14;;;;;;;8.95;7.07;;;10.00;99.90;;;;;;5040600;28;20466;-50
2022/01/04 10:14:46;;;;;;;13.77;7.25;;;10.10;99.90;;;;;;5040268;28;20209;-51
2022/01/04 10:17:15;;;;;;;11.00;6.82;;;10.00;99.90;;;;;;5040964;28;20242;-48
2022/01/04 10:19:55;;;;;;;10.07;7.60;;;10.10;99.90;;;;;;5056159;28;20208;-48
2022/01/04 10:22:40;;;;;;;7.07;5.55;;;10.20;99.90;;;;;;5039994;28;20236;-50
2022/01/04 10:25:10;;;;;;;9.98;6.07;;;10.30;99.90;;;;;;5040863;28;20193;-48
2022/01/04 10:27:38;;;;;;;6.90;6.07;;;10.30;99.90;;;;;;5040344;28;20245;-53
2022/01/04 10:30:22;;;;;;;6.80;4.70;;;10.30;99.90;;;;;;5040420;28;20196;-50
2022/01/04 10:33:10;;;;;;;13.93;6.10;;;10.10;99.90;;;;;;5040146;28;20231;-48
2022/01/04 10:35:56;;;;;;;9.60;5.50;;;10.00;99.90;;;;;;5040990;28;20209;-49
2022/01/04 10:38:30;;;;;;;7.95;6.97;;;10.20;99.90;;;;;;5040084;28;20209;-49
2022/01/04 10:41:01;;;;;;;13.75;7.00;;;10.00;99.90;;;;;;5040919;28;20480;-52
2022/01/04 10:43:33;;;;;;;13.15;7.10;;;10.00;99.90;;;;;;5041348;28;20745;-50
2022/01/04 10:46:04;;;;;;;10.93;5.82;;;9.80;99.90;;;;;;5041158;28;20204;-50
2022/01/04 10:48:45;;;;;;;15.48;8.90;;;9.70;99.90;;;;;;5040338;28;20196;-52
2022/01/04 10:51:12;;;;;;;12.60;6.38;;;9.80;99.90;;;;;;5039701;28;20512;-51
2022/01/04 10:53:51;;;;;;;7.82;5.70;;;9.90;99.90;;;;;;5040409;28;20230;-50
2022/01/04 10:56:26;;;;;;;8.30;5.32;;;10.00;99.90;;;;;;5045697;28;20423;-50
2022/01/04 10:58:54;;;;;;;7.07;6.18;;;10.00;99.90;;;;;;5059827;28;20200;-50
2022/01/04 11:01:27;;;;;;;9.57;6.47;;;9.90;99.90;;;;;;5059995;28;20630;-53
2022/01/04 11:03:59;;;;;;;7.38;5.63;;;10.10;99.90;;;;;;5059668;28;20222;-52
2022/01/04 11:06:30;;;;;;;7.50;6.15;;;10.10;99.90;;;;;;5058296;28;20205;-51
2022/01/04 11:08:58;;;;;;;10.27;6.55;;;10.30;99.90;;;;;;5059853;28;20203;-53
2022/01/04 11:11:26;;;;;;;8.93;5.45;;;10.10;99.90;;;;;;5059549;28;20193;-54
2022/01/04 11:13:54;;;;;;;11.02;6.65;;;10.10;99.90;;;;;;5059463;28;20280;-54
2022/01/04 11:16:24;;;;;;;5.60;4.85;;;10.00;99.90;;;;;;5059727;28;20211;-47
2022/01/04 11:18:54;;;;;;;13.85;5.32;;;9.80;99.90;;;;;;5059414;28;20201;-48
2022/01/04 11:21:28;;;;;;;7.20;3.95;;;9.90;99.90;;;;;;5059524;28;20214;-50
2022/01/04 11:23:56;;;;;;;4.72;3.83;;;9.90;99.90;;;;;;5059687;28;20283;-51
2022/01/04 11:26:25;;;;;;;6.88;3.55;;;9.90;99.90;;;;;;5059283;28;20618;-52
2022/01/04 11:28:53;;;;;;;5.97;4.53;;;10.00;99.90;;;;;;5063834;28;20205;-51
2022/01/04 11:31:41;;;;;;;4.43;3.63;;;9.80;99.90;;;;;;5066065;28;20208;-51
2022/01/04 11:34:22;;;;;;;6.75;4.75;;;9.80;99.90;;;;;;5059938;28;20202;-53
2022/01/04 11:36:51;;;;;;;7.45;5.30;;;9.80;99.90;;;;;;5059201;28;20227;-49
2022/01/04 11:39:34;;;;;;;5.55;4.80;;;9.70;99.90;;;;;;5059680;28;20208;-52
2022/01/04 11:42:31;;;;;;;9.60;4.35;;;9.90;99.90;;;;;;5061106;28;20313;-50
2022/01/04 11:44:59;;;;;;;5.97;4.38;;;10.00;99.90;;;;;;5063336;28;20200;-47
2022/01/04 11:47:29;;;;;;;6.50;4.50;;;10.10;99.90;;;;;;5063112;28;20212;-51
2022/01/04 11:50:16;;;;;;;5.60;4.05;;;10.00;99.90;;;;;;5063373;28;20244;-51
2022/01/04 11:52:49;;;;;;;7.03;5.95;;;10.00;99.90;;;;;;5063101;28;20230;-49
2022/01/04 11:55:21;;;;;;;8.15;5.90;;;10.00;99.90;;;;;;5063150;28;20201;-53
2022/01/04 11:57:49;;;;;;;5.78;4.50;;;10.00;99.90;;;;;;5062969;28;20562;-50
2022/01/04 12:00:27;;;;;;;10.70;6.97;;;10.00;99.90;;;;;;5062731;28;20264;-52
2022/01/04 12:03:18;;;;;;;6.30;5.18;;;9.80;99.90;;;;;;5062866;28;20220;-53
2022/01/04 12:05:55;;;;;;;12.52;7.45;;;9.80;99.90;;;;;;5065221;28;20198;-53
2022/01/04 12:08:25;;;;;;;11.45;5.70;;;9.90;99.90;;;;;;5073475;28;20196;-54
2022/01/04 12:10:54;;;;;;;8.68;6.93;;;9.90;99.90;;;;;;5073919;28;20196;-55
2022/01/04 12:13:45;;;;;;;8.25;6.32;;;9.80;99.90;;;;;;5070399;28;20275;-48
2022/01/04 12:16:12;;;;;;;15.02;8.10;;;9.70;99.90;;;;;;5065353;28;20206;-49
2022/01/04 12:18:39;;;;;;;12.45;7.20;;;9.90;99.90;;;;;;5065775;28;20209;-52
2022/01/04 12:21:15;;;;;;;9.05;7.10;;;9.90;99.90;;;;;;5064732;28;20251;-51
2022/01/04 12:23:48;;;;;;;9.02;7.53;;;10.00;99.90;;;;;;5064841;28;20221;-50
2022/01/04 12:26:15;;;;;;;6.95;5.90;;;10.10;99.90;;;;;;5063934;28;20219;-51
2022/01/04 12:29:09;;;;;;;9.00;7.05;;;10.10;99.90;;;;;;5064623;28;20426;-50
2022/01/04 12:31:48;;;;;;;9.50;6.88;;;10.10;99.90;;;;;;5064974;28;20531;-49
2022/01/04 12:34:50;;;;;;;8.95;7.57;;;10.20;99.90;;;;;;5063054;28;20200;-50
2022/01/04 12:37:18;;;;;;;10.95;8.23;;;10.10;99.90;;;;;;5062431;28;20201;-50
2022/01/04 12:39:47;;;;;;;11.20;8.55;;;10.10;99.90;;;;;;5062438;28;20236;-53
2022/01/04 12:42:18;;;;;;;8.00;7.18;;;10.20;99.90;;;;;;5062333;28;20233;-51
2022/01/04 12:44:52;;;;;;;11.40;7.15;;;10.40;99.90;;;;;;5061580;28;20741;-50
2022/01/04 12:47:20;;;;;;;10.57;8.40;;;10.40;99.90;;;;;;5062501;28;20273;-50
2022/01/04 12:49:48;;;;;;;10.05;7.43;;;10.50;99.90;;;;;;5062079;28;20201;-49
2022/01/04 12:52:17;;;;;;;12.38;6.40;;;10.30;99.90;;;;;;5061710;28;20309;-51
2022/01/04 12:54:45;;;;;;;9.35;6.68;;;10.40;99.90;;;;;;5062007;28;20202;-56
2022/01/04 12:57:14;;;;;;;12.05;7.78;;;10.40;99.90;;;;;;5061016;28;20534;-48
2022/01/04 12:59:51;;;;;;;7.50;6.40;;;10.50;99.90;;;;;;5061836;28;20205;-49
2022/01/04 13:02:29;;;;;;;11.13;8.23;;;10.40;99.90;;;;;;5061359;28;20272;-49
2022/01/04 13:05:05;;;;;;;7.82;5.43;;;10.30;99.90;;;;;;5061728;28;20197;-51
2022/01/04 13:07:41;;;;;;;8.88;7.25;;;10.30;99.90;;;;;;5060918;28;20220;-50
2022/01/04 13:10:15;;;;;;;9.45;7.45;;;10.30;99.90;;;;;;5068514;28;20198;-50
2022/01/04 13:12:44;;;;;;;7.78;5.90;;;10.30;99.90;;;;;;5061657;28;20222;-49